Time,TemperatureF,DewpointF,PressureIn,WindDirection,WindDirectionDegrees,WindSpeedMPH,WindSpeedGustMPH,Humidity,HourlyPrecipIn,Conditions,Clouds,dailyrainin,SoftwareType,DateUTC
2013-01-21 00:04:00,-999.0,-99.9,30.03,East,100,9.0,14.0,-999,-99.99,,,-99.99,,2013-01-21 05:04:00,
2013-01-21 00:13:00,-999.0,-99.9,30.03,ESE,112,8.0,11.0,-999,-99.99,,,-99.99,,2013-01-21 05:13:00,
2013-01-21 00:23:00,-999.0,-99.9,30.03,East,89,6.0,15.0,-999,-99.99,,,-99.99,,2013-01-21 05:23:00,
2013-01-21 00:34:00,-999.0,-99.9,30.02,ESE,105,13.0,16.0,-999,-99.99,,,-99.99,,2013-01-21 05:34:00,
2013-01-21 00:43:00,-999.0,-99.9,30.02,ENE,76,10.0,18.0,-999,-99.99,,,-99.99,,2013-01-21 05:43:00,
2013-01-21 00:53:00,7.0,-99.9,30.02,ESE,112,9.0,12.0,-999,-99.99,,,-99.99,,2013-01-21 05:53:00,
2013-01-21 01:03:00,-999.0,-99.9,30.02,ENE,66,4.0,10.0,-999,-99.99,,,-99.99,,2013-01-21 06:03:00,
2013-01-21 01:13:00,7.0,-99.9,30.01,ENE,74,12.0,14.0,-999,-99.99,,,-99.99,,2013-01-21 06:13:00,
2013-01-21 01:23:00,-999.0,-99.9,30.01,NE,51,6.0,14.0,-999,-99.99,,,-99.99,,2013-01-21 06:23:00,
2013-01-21 01:33:00,-999.0,-99.9,30.01,SE,145,4.0,8.0,-999,-99.99,,,-99.99,,2013-01-21 06:33:00,
2013-01-21 01:43:00,-999.0,-99.9,30.00,WSW,255,5.0,7.0,-999,-99.99,,,-99.99,,2013-01-21 06:43:00,
2013-01-21 01:53:00,-999.0,-99.9,30.00,WSW,241,2.0,3.0,-999,-99.99,,,-99.99,,2013-01-21 06:53:00,
2013-01-21 02:03:00,-999.0,-99.9,29.99,WSW,247,3.0,5.0,-999,-99.99,,,-99.99,,2013-01-21 07:03:00,
2013-01-21 02:13:00,-999.0,-99.9,29.99,WSW,247,5.0,7.0,-999,-99.99,,,-99.99,,2013-01-21 07:13:00,
2013-01-21 02:23:00,5.0,-99.9,29.98,SW,229,4.0,8.0,-999,-99.99,,,-99.99,,2013-01-21 07:23:00,
2013-01-21 02:33:00,-999.0,-99.9,29.98,SW,221,2.0,3.0,-999,-99.99,,,-99.99,,2013-01-21 07:33:00,
2013-01-21 02:43:00,4.0,-99.9,29.98,SSE,165,2.0,4.0,-999,-99.99,,,-99.99,,2013-01-21 07:43:00,
2013-01-21 02:53:00,-999.0,-99.9,29.98,SSE,151,4.0,6.0,-999,-99.99,,,-99.99,,2013-01-21 07:53:00,
2013-01-21 03:03:00,-999.0,-99.9,29.98,SSE,150,3.0,5.0,-999,-99.99,,,-99.99,,2013-01-21 08:03:00,
2013-01-21 03:14:00,-999.0,-99.9,29.98,South,170,4.0,6.0,-999,-99.99,,,-99.99,,2013-01-21 08:14:00,
2013-01-21 03:23:00,-999.0,-99.9,29.98,SSE,167,4.0,5.0,-999,-99.99,,,-99.99,,2013-01-21 08:23:00,
2013-01-21 03:33:00,-999.0,-99.9,29.98,South,184,3.0,6.0,-999,-99.99,,,-99.99,,2013-01-21 08:33:00,
2013-01-21 03:43:00,-999.0,-99.9,29.97,South,172,4.0,5.0,-999,-99.99,,,-99.99,,2013-01-21 08:43:00,
2013-01-21 03:53:00,1.0,-99.9,29.97,SSE,164,4.0,6.0,-999,-99.99,,,-99.99,,2013-01-21 08:53:00,
2013-01-21 04:03:00,-999.0,-99.9,29.96,South,173,4.0,6.0,-999,-99.99,,,-99.99,,2013-01-21 09:03:00,
2013-01-21 04:23:00,-999.0,-99.9,29.95,SSE,161,6.0,7.0,-999,-99.99,,,-99.99,,2013-01-21 09:23:00,
2013-01-21 04:33:00,-999.0,-99.9,29.94,South,180,5.0,7.0,-999,-99.99,,,-99.99,,2013-01-21 09:33:00,
2013-01-21 04:43:00,-999.0,-99.9,29.94,SSE,166,5.0,7.0,-999,-99.99,,,-99.99,,2013-01-21 09:43:00,
2013-01-21 04:53:00,-999.0,-99.9,29.93,South,169,5.0,8.0,-999,-99.99,,,-99.99,,2013-01-21 09:53:00,
2013-01-21 05:03:00,-999.0,-99.9,29.93,SSE,161,6.0,9.0,-999,-99.99,,,-99.99,,2013-01-21 10:03:00,
2013-01-21 05:12:00,-999.0,-99.9,29.93,SSE,167,5.0,8.0,-999,-99.99,,,-99.99,,2013-01-21 10:12:00,
2013-01-21 05:23:00,-1.0,-99.9,29.93,South,173,6.0,9.0,-999,-99.99,,,-99.99,,2013-01-21 10:23:00,
2013-01-21 05:33:00,-999.0,-99.9,29.92,SSE,166,5.0,11.0,-999,-99.99,,,-99.99,,2013-01-21 10:33:00,
2013-01-21 05:43:00,-2.0,-99.9,29.92,SSE,158,7.0,10.0,-999,-99.99,,,-99.99,,2013-01-21 10:43:00,
2013-01-21 05:53:00,-999.0,-99.9,29.91,SE,143,8.0,12.0,-999,-99.99,,,-99.99,,2013-01-21 10:53:00,
2013-01-21 06:03:00,-999.0,-99.9,29.91,SE,138,7.0,12.0,-999,-99.99,,,-99.99,,2013-01-21 11:03:00,
2013-01-21 06:13:00,-2.0,-99.9,29.91,SE,130,5.0,11.0,-999,-99.99,,,-99.99,,2013-01-21 11:13:00,
2013-01-21 06:23:00,-999.0,-99.9,29.90,SE,128,6.0,9.0,-999,-99.99,,,-99.99,,2013-01-21 11:23:00,
2013-01-21 06:33:00,-999.0,-99.9,29.91,SE,130,6.0,9.0,-999,-99.99,,,-99.99,,2013-01-21 11:33:00,
2013-01-21 06:43:00,-999.0,-99.9,29.90,SE,128,6.0,10.0,-999,-99.99,,,-99.99,,2013-01-21 11:43:00,
2013-01-21 06:53:00,-2.0,-99.9,29.90,SE,134,6.0,8.0,-999,-99.99,,,-99.99,,2013-01-21 11:53:00,
2013-01-21 07:03:00,-999.0,-99.9,29.90,SE,125,8.0,12.0,-999,-99.99,,,-99.99,,2013-01-21 12:03:00,
2013-01-21 07:12:00,-2.0,-99.9,29.90,SE,144,4.0,12.0,-999,-99.99,,,-99.99,,2013-01-21 12:12:00,
2013-01-21 07:23:00,-999.0,-99.9,29.89,SE,139,7.0,11.0,-999,-99.99,,,-99.99,,2013-01-21 12:23:00,
2013-01-21 07:33:00,-999.0,-99.9,29.89,SE,130,6.0,10.0,-999,-99.99,,,-99.99,,2013-01-21 12:33:00,
2013-01-21 07:43:00,-1.0,-99.9,29.89,SE,125,7.0,10.0,-999,-99.99,,,-99.99,,2013-01-21 12:43:00,
2013-01-21 07:53:00,-999.0,-99.9,29.89,SSE,167,3.0,6.0,-999,-99.99,,,-99.99,,2013-01-21 12:53:00,
2013-01-21 08:03:00,-999.0,-99.9,29.88,SSE,147,6.0,9.0,-999,-99.99,,,-99.99,,2013-01-21 13:03:00,
2013-01-21 08:13:00,-999.0,-99.9,29.88,SE,142,5.0,9.0,-999,-99.99,,,-99.99,,2013-01-21 13:13:00,
2013-01-21 08:23:00,-2.0,-99.9,29.88,SE,142,6.0,9.0,-999,-99.99,,,-99.99,,2013-01-21 13:23:00,
2013-01-21 08:33:00,-999.0,-99.9,29.88,ESE,121,10.0,12.0,-999,-99.99,,,-99.99,,2013-01-21 13:33:00,
2013-01-21 08:43:00,-999.0,-99.9,29.88,ESE,120,9.0,12.0,-999,-99.99,,,-99.99,,2013-01-21 13:43:00,
2013-01-21 08:54:00,-1.0,-99.9,29.88,SE,131,7.0,11.0,-999,-99.99,,,-99.99,,2013-01-21 13:54:00,
2013-01-21 09:04:00,-999.0,-99.9,29.88,East,101,6.0,9.0,-999,-99.99,,,-99.99,,2013-01-21 14:04:00,
2013-01-21 09:23:00,-999.0,-99.9,29.88,SE,136,4.0,6.0,-999,-99.99,,,-99.99,,2013-01-21 14:23:00,
2013-01-21 09:33:00,-999.0,-99.9,29.87,ESE,119,5.0,6.0,-999,-99.99,,,-99.99,,2013-01-21 14:33:00,
2013-01-21 09:43:00,1.0,-99.9,29.88,SE,129,3.0,6.0,-999,-99.99,,,-99.99,,2013-01-21 14:43:00,
2013-01-21 09:54:00,-999.0,-99.9,29.87,ESE,117,5.0,7.0,-999,-99.99,,,-99.99,,2013-01-21 14:54:00,
2013-01-21 10:03:00,-999.0,-99.9,29.87,East,98,14.0,16.0,-999,-99.99,,,-99.99,,2013-01-21 15:03:00,
2013-01-21 10:14:00,-999.0,-99.9,29.87,East,92,12.0,17.0,-999,-99.99,,,-99.99,,2013-01-21 15:14:00,
2013-01-21 10:23:00,-999.0,-99.9,29.87,East,97,11.0,16.0,-999,-99.99,,,-99.99,,2013-01-21 15:23:00,
2013-01-21 10:33:00,-999.0,-99.9,29.87,East,97,11.0,13.0,-999,-99.99,,,-99.99,,2013-01-21 15:33:00,
2013-01-21 10:43:00,-999.0,-99.9,29.88,East,90,10.0,14.0,-999,-99.99,,,-99.99,,2013-01-21 15:43:00,
2013-01-21 10:53:00,2.0,-99.9,29.88,East,94,11.0,14.0,-999,-99.99,,,-99.99,,2013-01-21 15:53:00,
2013-01-21 11:04:00,-999.0,-99.9,29.88,East,87,12.0,14.0,-999,-99.99,,,-99.99,,2013-01-21 16:04:00,
2013-01-21 11:13:00,2.0,-99.9,29.88,East,81,11.0,14.0,-999,-99.99,,,-99.99,,2013-01-21 16:13:00,
2013-01-21 11:24:00,-999.0,-99.9,29.87,East,94,12.0,15.0,-999,-99.99,,,-99.99,,2013-01-21 16:24:00,
2013-01-21 11:33:00,-999.0,-99.9,29.87,East,88,12.0,15.0,-999,-99.99,,,-99.99,,2013-01-21 16:33:00,
2013-01-21 11:44:00,-999.0,-99.9,29.88,East,79,10.0,12.0,-999,-99.99,,,-99.99,,2013-01-21 16:44:00,
2013-01-21 11:53:00,-999.0,-99.9,29.88,East,82,10.0,13.0,-999,-99.99,,,-99.99,,2013-01-21 16:53:00,
2013-01-21 12:03:00,-999.0,-99.9,29.88,ENE,67,10.0,13.0,-999,-99.99,,,-99.99,,2013-01-21 17:03:00,
2013-01-21 12:13:00,-999.0,-99.9,29.88,ENE,73,8.0,12.0,-999,-99.99,,,-99.99,,2013-01-21 17:13:00,
2013-01-21 12:23:00,3.0,-99.9,29.87,ENE,77,7.0,11.0,-999,-99.99,,,-99.99,,2013-01-21 17:23:00,
2013-01-21 12:33:00,-999.0,-99.9,29.87,ESE,114,7.0,10.0,-999,-99.99,,,-99.99,,2013-01-21 17:33:00,
2013-01-21 12:43:00,4.0,-99.9,29.87,ESE,104,6.0,9.0,-999,-99.99,,,-99.99,,2013-01-21 17:43:00,
2013-01-21 12:53:00,-999.0,-99.9,29.86,ESE,103,5.0,8.0,-999,-99.99,,,-99.99,,2013-01-21 17:53:00,
2013-01-21 13:03:00,-999.0,-99.9,29.86,ESE,102,4.0,7.0,-999,-99.99,,,-99.99,,2013-01-21 18:03:00,
2013-01-21 13:12:00,-999.0,-99.9,29.85,East,80,5.0,6.0,-999,-99.99,,,-99.99,,2013-01-21 18:12:00,
2013-01-21 13:23:00,-999.0,-99.9,29.85,East,97,3.0,5.0,-999,-99.99,,,-99.99,,2013-01-21 18:23:00,
2013-01-21 13:33:00,-999.0,-99.9,29.85,ESE,117,5.0,6.0,-999,-99.99,,,-99.99,,2013-01-21 18:33:00,
2013-01-21 13:43:00,-999.0,-99.9,29.85,SE,124,4.0,6.0,-999,-99.99,,,-99.99,,2013-01-21 18:43:00,
2013-01-21 13:53:00,5.0,-99.9,29.85,SE,135,4.0,6.0,-999,-99.99,,,-99.99,,2013-01-21 18:53:00,
2013-01-21 14:03:00,-999.0,-99.9,29.85,ESE,115,2.0,4.0,-999,-99.99,,,-99.99,,2013-01-21 19:03:00,
2013-01-21 14:13:00,5.0,-99.9,29.84,ESE,118,3.0,4.0,-999,-99.99,,,-99.99,,2013-01-21 19:13:00,
2013-01-21 14:23:00,-999.0,-99.9,29.84,ESE,117,3.0,4.0,-999,-99.99,,,-99.99,,2013-01-21 19:23:00,
2013-01-21 14:33:00,-999.0,-99.9,29.84,ESE,123,3.0,4.0,-999,-99.99,,,-99.99,,2013-01-21 19:33:00,
2013-01-21 14:43:00,-999.0,-99.9,29.84,SE,131,3.0,4.0,-999,-99.99,,,-99.99,,2013-01-21 19:43:00,
2013-01-21 14:53:00,-999.0,-99.9,29.84,East,93,3.0,4.0,-999,-99.99,,,-99.99,,2013-01-21 19:53:00,
2013-01-21 15:04:00,-999.0,-99.9,29.84,NNE,18,6.0,12.0,-999,-99.99,,,-99.99,,2013-01-21 20:04:00,
2013-01-21 15:12:00,-999.0,-99.9,29.84,NNE,26,10.0,17.0,-999,-99.99,,,-99.99,,2013-01-21 20:12:00,
2013-01-21 15:23:00,8.0,-99.9,29.85,NNE,15,9.0,14.0,-999,-99.99,,,-99.99,,2013-01-21 20:23:00,
2013-01-21 15:33:00,-999.0,-99.9,29.85,NNE,27,9.0,15.0,-999,-99.99,,,-99.99,,2013-01-21 20:33:00,
2013-01-21 15:43:00,8.0,-99.9,29.85,NNE,32,9.0,13.0,-999,-99.99,,,-99.99,,2013-01-21 20:43:00,
2013-01-21 15:53:00,-999.0,-99.9,29.85,NE,47,7.0,11.0,-999,-99.99,,,-99.99,,2013-01-21 20:53:00,
2013-01-21 16:04:00,-999.0,-99.9,29.86,NNE,12,7.0,11.0,-999,-99.99,,,-99.99,,2013-01-21 21:04:00,
2013-01-21 16:13:00,8.0,-99.9,29.86,NNW,338,9.0,14.0,-999,-99.99,,,-99.99,,2013-01-21 21:13:00,
2013-01-21 16:23:00,-999.0,-99.9,29.87,NNW,338,13.0,17.0,-999,-99.99,,,-99.99,,2013-01-21 21:23:00,
2013-01-21 16:33:00,-999.0,-99.9,29.87,NNW,333,14.0,18.0,-999,-99.99,,,-99.99,,2013-01-21 21:33:00,
2013-01-21 16:43:00,-999.0,-99.9,29.87,NNW,346,9.0,14.0,-999,-99.99,,,-99.99,,2013-01-21 21:43:00,
2013-01-21 16:54:00,7.0,-99.9,29.87,NNW,346,6.0,11.0,-999,-99.99,,,-99.99,,2013-01-21 21:54:00,
2013-01-21 17:04:00,-999.0,-99.9,29.88,North,7,10.0,13.0,-999,-99.99,,,-99.99,,2013-01-21 22:04:00,
2013-01-21 17:13:00,7.0,-99.9,29.88,NNW,337,17.0,20.0,-999,-99.99,,,-99.99,,2013-01-21 22:13:00,
2013-01-21 17:24:00,-999.0,-99.9,29.88,North,354,14.0,18.0,-999,-99.99,,,-99.99,,2013-01-21 22:24:00,
2013-01-21 17:33:00,-999.0,-99.9,29.88,North,4,10.0,16.0,-999,-99.99,,,-99.99,,2013-01-21 22:33:00,
2013-01-21 17:43:00,6.0,-99.9,29.89,NNW,347,10.0,18.0,-999,-99.99,,,-99.99,,2013-01-21 22:43:00,
2013-01-21 17:53:00,-999.0,-99.9,29.89,NNE,24,12.0,15.0,-999,-99.99,,,-99.99,,2013-01-21 22:53:00,
2013-01-21 18:03:00,-999.0,-99.9,29.90,North,7,11.0,17.0,-999,-99.99,,,-99.99,,2013-01-21 23:03:00,
2013-01-21 18:13:00,-999.0,-99.9,29.90,NNE,23,8.0,15.0,-999,-99.99,,,-99.99,,2013-01-21 23:13:00,
2013-01-21 18:23:00,6.0,-99.9,29.91,NNE,21,12.0,16.0,-999,-99.99,,,-99.99,,2013-01-21 23:23:00,
2013-01-21 18:33:00,-999.0,-99.9,29.91,NNE,16,12.0,21.0,-999,-99.99,,,-99.99,,2013-01-21 23:33:00,
2013-01-21 18:43:00,6.0,-99.9,29.91,NNE,29,12.0,15.0,-999,-99.99,,,-99.99,,2013-01-21 23:43:00,
2013-01-21 18:53:00,-999.0,-99.9,29.91,NNE,18,13.0,17.0,-999,-99.99,,,-99.99,,2013-01-21 23:53:00,
2013-01-21 19:03:00,-999.0,-99.9,29.91,NNE,27,8.0,14.0,-999,-99.99,,,-99.99,,2013-01-22 00:03:00,
2013-01-21 19:12:00,6.0,-99.9,29.91,North,1,8.0,11.0,-999,-99.99,,,-99.99,,2013-01-22 00:12:00,
2013-01-21 19:23:00,-999.0,-99.9,29.91,NNW,327,10.0,14.0,-999,-99.99,,,-99.99,,2013-01-22 00:23:00,
2013-01-21 19:33:00,-999.0,-99.9,29.91,NNW,327,10.0,14.0,-999,-99.99,,,-99.99,,2013-01-22 00:33:00,
2013-01-21 19:43:00,-999.0,-99.9,29.93,ESE,123,5.0,7.0,-999,-99.99,,,-99.99,,2013-01-22 00:43:00,
2013-01-21 19:53:00,4.0,-99.9,29.93,ESE,112,1.0,7.0,-999,-99.99,,,-99.99,,2013-01-22 00:53:00,
2013-01-21 20:03:00,-999.0,-99.9,29.93,ESE,114,4.0,8.0,-999,-99.99,,,-99.99,,2013-01-22 01:03:00,
2013-01-21 20:12:00,4.0,-99.9,29.93,ESE,112,7.0,9.0,-999,-99.99,,,-99.99,,2013-01-22 01:12:00,
2013-01-21 20:23:00,-999.0,-99.9,29.93,SE,126,5.0,9.0,-999,-99.99,,,-99.99,,2013-01-22 01:23:00,
2013-01-21 20:33:00,-999.0,-99.9,29.94,East,93,10.0,12.0,-999,-99.99,,,-99.99,,2013-01-22 01:33:00,
2013-01-21 20:43:00,3.0,-99.9,29.94,ESE,107,4.0,12.0,-999,-99.99,,,-99.99,,2013-01-22 01:43:00,
2013-01-21 20:53:00,-999.0,-99.9,29.93,East,79,12.0,14.0,-999,-99.99,,,-99.99,,2013-01-22 01:53:00,
2013-01-21 21:03:00,-999.0,-99.9,29.94,ESE,111,3.0,8.0,-999,-99.99,,,-99.99,,2013-01-22 02:03:00,
2013-01-21 21:12:00,-999.0,-99.9,29.94,East,85,7.0,13.0,-999,-99.99,,,-99.99,,2013-01-22 02:12:00,
2013-01-21 21:23:00,-999.0,-99.9,29.94,East,86,12.0,15.0,-999,-99.99,,,-99.99,,2013-01-22 02:23:00,
2013-01-21 21:33:00,-999.0,-99.9,29.94,ENE,64,10.0,13.0,-999,-99.99,,,-99.99,,2013-01-22 02:33:00,
2013-01-21 21:43:00,-999.0,-99.9,29.94,ENE,65,10.0,14.0,-999,-99.99,,,-99.99,,2013-01-22 02:43:00,
2013-01-21 21:53:00,4.0,-99.9,29.95,ENE,76,8.0,13.0,-999,-99.99,,,-99.99,,2013-01-22 02:53:00,
2013-01-21 22:03:00,-999.0,-99.9,29.95,NE,47,11.0,14.0,-999,-99.99,,,-99.99,,2013-01-22 03:03:00,
2013-01-21 22:12:00,3.0,-99.9,29.95,NE,49,10.0,14.0,-999,-99.99,,,-99.99,,2013-01-22 03:12:00,
2013-01-21 22:23:00,-999.0,-99.9,29.95,NE,51,13.0,17.0,-999,-99.99,,,-99.99,,2013-01-22 03:23:00,
2013-01-21 22:33:00,-999.0,-99.9,29.96,NE,36,13.0,16.0,-999,-99.99,,,-99.99,,2013-01-22 03:33:00,
2013-01-21 22:43:00,-999.0,-99.9,29.96,NNE,28,15.0,20.0,-999,-99.99,,,-99.99,,2013-01-22 03:43:00,
2013-01-21 22:53:00,2.0,-99.9,29.96,NNE,14,16.0,19.0,-999,-99.99,,,-99.99,,2013-01-22 03:53:00,
2013-01-21 23:03:00,-999.0,-99.9,29.97,NNE,22,15.0,21.0,-999,-99.99,,,-99.99,,2013-01-22 04:03:00,
2013-01-21 23:12:00,2.0,-99.9,29.97,NNE,21,16.0,19.0,-999,-99.99,,,-99.99,,2013-01-22 04:12:00,
2013-01-21 23:22:00,-999.0,-99.9,29.97,NNE,32,14.0,18.0,-999,-99.99,,,-99.99,,2013-01-22 04:22:00,
2013-01-21 23:33:00,-999.0,-99.9,29.97,NNE,22,14.0,17.0,-999,-99.99,,,-99.99,,2013-01-22 04:33:00,
2013-01-21 23:43:00,1.0,-99.9,29.97,NNE,25,14.0,18.0,-999,-99.99,,,-99.99,,2013-01-22 04:43:00,
2013-01-21 23:53:00,-999.0,-99.9,29.98,NNE,30,14.0,17.0,-999,-99.99,,,-99.99,,2013-01-22 04:53:00,